Time;durP1;ratioP1;P1;durP2;ratioP2;P2;SDS_P1;SDS_P2;PMS_P1;PMS_P2;Temp;Humidity;BMP_temperature;BMP_pressure;BME280_temperature;BME280_humidity;BME280_pressure;Samples;Min_cycle;Max_cycle;Signal;HPM_P1;HPM_P2
2023/12/20 00:01:52;;;;;;;3.97;2.70;;;5.90;99.90;;;;;;5013211;28;20255;-28
2023/12/20 00:04:19;;;;;;;3.80;2.60;;;5.90;99.90;;;;;;5019705;28;20191;-28
2023/12/20 00:06:44;;;;;;;7.87;4.20;;;5.90;99.90;;;;;;5006945;28;20183;-28
2023/12/20 00:09:10;;;;;;;17.80;7.60;;;5.90;99.90;;;;;;4995778;28;20372;-28
2023/12/20 00:11:36;;;;;;;9.20;4.50;;;5.90;99.90;;;;;;5014353;28;20197;-28
2023/12/20 00:14:03;;;;;;;4.87;2.90;;;5.90;99.90;;;;;;5024928;28;20187;-28
2023/12/20 00:16:31;;;;;;;4.10;2.10;;;5.90;99.90;;;;;;5009753;28;20190;-29
2023/12/20 00:18:57;;;;;;;4.10;2.00;;;5.90;99.90;;;;;;4991468;28;20183;-28
2023/12/20 00:21:23;;;;;;;3.03;1.53;;;5.90;99.90;;;;;;4993987;28;20237;-28
2023/12/20 00:23:49;;;;;;;1.90;1.53;;;5.90;99.90;;;;;;5012902;28;20173;-28
2023/12/20 00:26:15;;;;;;;2.27;1.77;;;5.90;99.90;;;;;;4998061;28;20221;-29
2023/12/20 00:28:42;;;;;;;2.83;2.00;;;5.90;99.90;;;;;;5022030;28;20309;-28
2023/12/20 00:31:08;;;;;;;2.27;1.80;;;5.90;99.90;;;;;;5012647;28;20284;-29
2023/12/20 00:33:34;;;;;;;2.33;1.90;;;5.90;99.90;;;;;;5013774;28;20301;-28
2023/12/20 00:36:00;;;;;;;3.27;2.03;;;5.90;99.90;;;;;;4993966;28;20182;-28
2023/12/20 00:38:26;;;;;;;2.80;2.40;;;5.90;99.90;;;;;;4994090;28;20191;-28
2023/12/20 00:40:52;;;;;;;3.60;3.00;;;5.90;99.90;;;;;;4994998;28;20272;-28
2023/12/20 00:43:18;;;;;;;4.00;2.80;;;5.90;99.90;;;;;;5026334;28;20253;-28
2023/12/20 00:45:44;;;;;;;4.73;2.73;;;6.00;99.90;;;;;;5005541;28;20186;-28
2023/12/20 00:48:10;;;;;;;4.23;2.60;;;6.00;99.90;;;;;;5011612;28;20182;-28
2023/12/20 00:50:35;;;;;;;2.20;1.57;;;6.00;99.90;;;;;;5010858;28;20199;-28
2023/12/20 00:53:01;;;;;;;2.63;1.93;;;6.00;99.90;;;;;;5003439;28;20236;-29
2023/12/20 00:55:27;;;;;;;2.67;1.73;;;6.00;99.90;;;;;;5028779;28;20183;-28
2023/12/20 00:57:53;;;;;;;3.07;2.00;;;6.00;99.90;;;;;;5013211;28;20218;-28
2023/12/20 01:00:19;;;;;;;2.83;1.87;;;6.00;99.90;;;;;;5007589;28;20221;-27
2023/12/20 01:02:49;;;;;;;2.43;1.80;;;6.00;99.90;;;;;;5007945;28;20272;-28
2023/12/20 01:05:14;;;;;;;1.60;1.40;;;6.00;99.90;;;;;;4994936;28;20190;-28
2023/12/20 01:07:40;;;;;;;1.50;1.07;;;6.00;99.90;;;;;;4984273;28;20179;-27
2023/12/20 01:10:06;;;;;;;1.20;1.10;;;6.00;99.90;;;;;;5023899;28;20213;-28
2023/12/20 01:12:32;;;;;;;1.67;1.20;;;6.00;99.90;;;;;;5014922;28;20207;-28
2023/12/20 01:14:58;;;;;;;1.20;1.10;;;5.90;99.90;;;;;;4981966;28;20185;-28
2023/12/20 01:17:24;;;;;;;1.77;0.80;;;5.90;99.90;;;;;;5012426;28;20285;-28
2023/12/20 01:19:50;;;;;;;1.97;0.60;;;5.90;99.90;;;;;;5009593;28;20261;-28
2023/12/20 01:22:15;;;;;;;0.80;0.80;;;5.90;99.90;;;;;;5017346;28;20209;-28
2023/12/20 01:24:42;;;;;;;1.07;0.97;;;5.90;99.90;;;;;;4992841;28;20177;-28
2023/12/20 01:27:08;;;;;;;0.70;0.70;;;6.00;99.90;;;;;;5010444;28;20182;-28
2023/12/20 01:29:34;;;;;;;1.03;0.70;;;5.90;99.90;;;;;;5009135;28;20232;-28
2023/12/20 01:32:00;;;;;;;1.10;0.90;;;5.90;99.90;;;;;;5023130;28;20214;-28
2023/12/20 01:34:26;;;;;;;1.27;0.60;;;5.90;99.90;;;;;;5018889;28;20185;-28
2023/12/20 01:36:52;;;;;;;1.20;0.87;;;5.90;99.90;;;;;;5001085;28;20192;-28
2023/12/20 01:39:18;;;;;;;0.73;0.70;;;5.90;99.90;;;;;;5011155;28;20182;-28
2023/12/20 01:41:44;;;;;;;1.17;0.73;;;5.90;99.90;;;;;;5013035;28;20256;-28
2023/12/20 01:44:09;;;;;;;0.80;0.80;;;5.80;99.90;;;;;;5010874;28;20174;-28
2023/12/20 01:46:35;;;;;;;1.10;1.00;;;5.80;99.90;;;;;;5012298;28;20198;-28
2023/12/20 01:49:01;;;;;;;2.17;1.00;;;5.80;99.90;;;;;;5025704;28;20174;-28
2023/12/20 01:51:27;;;;;;;1.77;0.93;;;5.80;99.90;;;;;;5028373;28;20193;-28
2023/12/20 01:53:56;;;;;;;1.27;0.73;;;5.80;99.90;;;;;;5013392;28;20239;-28
2023/12/20 01:56:23;;;;;;;1.23;0.70;;;5.80;99.90;;;;;;5011841;28;20178;-28
2023/12/20 01:58:49;;;;;;;0.60;0.60;;;5.80;99.90;;;;;;5011080;28;20179;-28
2023/12/20 02:01:15;;;;;;;0.70;0.70;;;5.80;99.90;;;;;;5015936;28;20214;-28
2023/12/20 02:03:42;;;;;;;1.10;1.00;;;5.80;99.90;;;;;;5015967;28;20186;-29
2023/12/20 02:06:09;;;;;;;2.13;1.00;;;5.80;99.90;;;;;;5000449;28;20200;-28
2023/12/20 02:08:35;;;;;;;0.77;0.77;;;5.70;99.90;;;;;;5015931;28;20195;-28
2023/12/20 02:11:01;;;;;;;1.57;1.10;;;5.70;99.90;;;;;;5010140;28;20289;-28
2023/12/20 02:13:28;;;;;;;1.63;0.90;;;5.70;99.90;;;;;;5010376;28;20174;-27
2023/12/20 02:15:57;;;;;;;1.63;0.90;;;5.70;99.90;;;;;;5020527;28;20461;-28
2023/12/20 02:18:23;;;;;;;1.83;1.00;;;5.70;99.90;;;;;;5014257;28;20174;-28
2023/12/20 02:20:49;;;;;;;0.80;0.80;;;5.70;99.90;;;;;;5013739;28;20202;-28
2023/12/20 02:23:15;;;;;;;1.23;0.90;;;5.70;99.90;;;;;;4999306;28;20232;-28
2023/12/20 02:25:41;;;;;;;0.90;0.80;;;5.70;99.90;;;;;;4994057;28;20198;-28
2023/12/20 02:28:07;;;;;;;1.33;0.90;;;5.70;99.90;;;;;;5031373;28;20178;-28
2023/12/20 02:30:33;;;;;;;1.13;0.90;;;5.70;99.90;;;;;;5016877;28;20210;-28
2023/12/20 02:33:01;;;;;;;2.50;1.00;;;5.70;99.90;;;;;;5018057;28;20324;-28
2023/12/20 02:35:28;;;;;;;1.10;0.90;;;5.70;99.90;;;;;;5013554;28;20190;-28
2023/12/20 02:37:55;;;;;;;1.23;1.10;;;5.70;99.90;;;;;;5015178;28;20197;-28
2023/12/20 02:40:20;;;;;;;1.60;1.50;;;5.70;99.90;;;;;;5014414;28;20179;-28
2023/12/20 02:42:46;;;;;;;1.10;1.10;;;5.60;99.90;;;;;;5008187;28;20198;-28
2023/12/20 02:45:12;;;;;;;1.20;0.90;;;5.60;99.90;;;;;;5032045;28;20239;-28
2023/12/20 02:47:38;;;;;;;1.30;0.90;;;5.60;99.90;;;;;;4997486;28;20192;-28
2023/12/20 02:50:04;;;;;;;1.33;1.00;;;5.60;99.90;;;;;;5014442;28;20182;-28
2023/12/20 02:52:30;;;;;;;0.73;0.73;;;5.60;99.90;;;;;;5016782;28;20230;-28
2023/12/20 02:54:55;;;;;;;1.00;0.90;;;5.60;99.90;;;;;;5014133;28;20186;-28
2023/12/20 02:57:21;;;;;;;0.87;0.80;;;5.60;99.90;;;;;;5019246;28;20182;-28
2023/12/20 02:59:47;;;;;;;1.53;0.90;;;5.60;99.90;;;;;;5019716;28;20187;-28
2023/12/20 03:02:13;;;;;;;0.80;0.70;;;5.60;99.90;;;;;;5011728;28;20251;-28
2023/12/20 03:04:40;;;;;;;1.03;0.77;;;5.60;99.90;;;;;;5021682;28;20185;-28
2023/12/20 03:07:05;;;;;;;1.20;1.00;;;5.70;99.90;;;;;;5015145;28;20181;-28
2023/12/20 03:09:32;;;;;;;1.23;0.90;;;5.70;99.90;;;;;;5013724;28;20178;-29
2023/12/20 03:11:57;;;;;;;0.90;0.90;;;5.60;99.90;;;;;;4987691;28;20206;-28
2023/12/20 03:14:23;;;;;;;1.03;0.93;;;5.70;99.90;;;;;;5013680;28;20179;-28
2023/12/20 03:16:50;;;;;;;1.03;0.90;;;5.70;99.90;;;;;;5013684;28;20254;-28
2023/12/20 03:19:16;;;;;;;0.70;0.70;;;5.70;99.90;;;;;;5002274;28;20186;-28
2023/12/20 03:21:42;;;;;;;1.00;0.80;;;5.60;99.90;;;;;;5011910;28;20210;-28
2023/12/20 03:24:08;;;;;;;0.70;0.70;;;5.60;99.90;;;;;;5011459;28;20268;-28
2023/12/20 03:26:33;;;;;;;0.70;0.70;;;5.60;99.90;;;;;;5013467;28;20182;-28
2023/12/20 03:28:59;;;;;;;1.33;0.70;;;5.60;99.90;;;;;;5014657;28;20186;-28
2023/12/20 03:31:25;;;;;;;1.43;0.40;;;5.60;99.90;;;;;;5016088;28;20308;-28
2023/12/20 03:33:53;;;;;;;0.83;0.50;;;5.60;99.90;;;;;;5023818;28;20628;-28
2023/12/20 03:36:19;;;;;;;0.33;0.33;;;5.60;99.90;;;;;;4994509;28;20171;-28
2023/12/20 03:38:45;;;;;;;0.40;0.40;;;5.60;99.90;;;;;;4993629;28;20191;-28
2023/12/20 03:41:11;;;;;;;0.50;0.50;;;5.60;99.90;;;;;;4989012;28;20194;-28
2023/12/20 03:43:37;;;;;;;1.00;0.60;;;5.60;99.90;;;;;;4997829;28;20186;-28
2023/12/20 03:46:04;;;;;;;0.40;0.40;;;5.60;99.90;;;;;;5001687;28;20175;-28
2023/12/20 03:48:33;;;;;;;0.30;0.30;;;5.60;99.90;;;;;;5013724;28;20174;-28
2023/12/20 03:50:58;;;;;;;0.40;0.40;;;5.60;99.90;;;;;;4997532;28;20260;-28
2023/12/20 03:53:24;;;;;;;0.77;0.77;;;5.60;99.90;;;;;;4997199;28;20191;-28
2023/12/20 03:55:50;;;;;;;0.67;0.60;;;5.60;99.90;;;;;;5027589;28;20189;-28
2023/12/20 03:58:16;;;;;;;0.60;0.60;;;5.60;99.90;;;;;;5012385;28;20210;-28
2023/12/20 04:00:41;;;;;;;0.80;0.60;;;5.60;99.90;;;;;;5023149;28;20203;-27
2023/12/20 04:03:07;;;;;;;0.77;0.50;;;5.60;99.90;;;;;;4987596;28;20214;-28
2023/12/20 04:05:33;;;;;;;0.73;0.60;;;5.60;99.90;;;;;;5010543;28;20182;-28
2023/12/20 04:08:01;;;;;;;1.33;0.67;;;5.60;99.90;;;;;;5012961;28;20272;-28
2023/12/20 04:10:27;;;;;;;0.60;0.60;;;5.60;99.90;;;;;;5011504;28;20253;-28
2023/12/20 04:12:54;;;;;;;0.70;0.70;;;5.60;99.90;;;;;;5002764;28;20265;-28
2023/12/20 04:15:20;;;;;;;1.30;0.90;;;5.50;99.90;;;;;;5011687;28;20193;-28
2023/12/20 04:17:46;;;;;;;0.70;0.70;;;5.50;99.90;;;;;;5011111;28;20196;-28
2023/12/20 04:20:12;;;;;;;0.67;0.67;;;5.50;99.90;;;;;;4998286;28;20241;-28
2023/12/20 04:22:38;;;;;;;0.60;0.60;;;5.50;99.90;;;;;;4997807;28;20212;-28
2023/12/20 04:25:04;;;;;;;0.70;0.50;;;5.50;99.90;;;;;;5028766;28;20216;-28
2023/12/20 04:27:29;;;;;;;0.40;0.40;;;5.50;99.90;;;;;;5007409;28;20174;-28
2023/12/20 04:29:55;;;;;;;0.50;0.40;;;5.40;99.90;;;;;;4997393;28;20273;-28
2023/12/20 04:32:21;;;;;;;0.30;0.30;;;5.40;99.90;;;;;;5009887;28;20379;-28
2023/12/20 04:34:47;;;;;;;0.30;0.30;;;5.40;99.90;;;;;;5013439;28;20178;-28
2023/12/20 04:37:13;;;;;;;0.23;0.23;;;5.40;99.90;;;;;;5006185;28;20196;-28
2023/12/20 04:39:39;;;;;;;0.30;0.30;;;5.40;99.90;;;;;;4993512;28;20187;-27
2023/12/20 04:42:04;;;;;;;0.30;0.30;;;5.40;99.90;;;;;;4999436;28;20218;-27
2023/12/20 04:44:31;;;;;;;0.40;0.40;;;5.40;99.90;;;;;;5002821;28;20179;-26
2023/12/20 04:46:58;;;;;;;0.60;0.60;;;5.40;99.90;;;;;;5001834;28;20182;-27
2023/12/20 04:49:24;;;;;;;0.37;0.37;;;5.30;99.90;;;;;;5005058;28;20188;-28
2023/12/20 04:51:50;;;;;;;0.50;0.50;;;5.30;99.90;;;;;;5028718;28;20198;-28
2023/12/20 04:54:16;;;;;;;0.40;0.40;;;5.30;99.90;;;;;;5012713;28;20186;-27
2023/12/20 04:56:42;;;;;;;0.50;0.50;;;5.30;99.90;;;;;;5010600;28;20261;-27
2023/12/20 04:59:08;;;;;;;0.50;0.30;;;5.30;99.90;;;;;;5000485;28;20190;-28
2023/12/20 05:01:36;;;;;;;0.40;0.40;;;5.30;99.90;;;;;;5009289;28;20220;-29
2023/12/20 05:04:02;;;;;;;0.40;0.40;;;5.30;99.90;;;;;;4996010;28;20281;-27
2023/12/20 05:06:29;;;;;;;0.60;0.60;;;5.30;99.90;;;;;;5003821;28;20276;-27
2023/12/20 05:08:55;;;;;;;1.33;0.50;;;5.30;99.90;;;;;;5014048;28;20193;-26
2023/12/20 05:11:21;;;;;;;0.53;0.50;;;5.30;99.90;;;;;;5011711;28;20210;-28
2023/12/20 05:13:47;;;;;;;0.90;0.90;;;5.30;99.90;;;;;;5027764;28;20212;-27
2023/12/20 05:16:14;;;;;;;0.80;0.80;;;5.30;99.90;;;;;;5012622;28;20190;-27
2023/12/20 05:18:40;;;;;;;0.63;0.63;;;5.30;99.90;;;;;;5019364;28;20175;-27
2023/12/20 05:21:07;;;;;;;0.40;0.40;;;5.30;99.90;;;;;;5024895;28;20202;-27
2023/12/20 05:23:33;;;;;;;0.47;0.47;;;5.30;99.90;;;;;;5017620;28;20181;-27
2023/12/20 05:25:59;;;;;;;0.60;0.60;;;5.20;99.90;;;;;;5012583;28;20196;-27
2023/12/20 05:28:25;;;;;;;0.60;0.60;;;5.30;99.90;;;;;;5021697;28;20249;-28
2023/12/20 05:30:51;;;;;;;1.53;0.90;;;5.20;99.90;;;;;;5005925;28;20200;-27
2023/12/20 05:33:17;;;;;;;0.57;0.57;;;5.20;99.90;;;;;;5001820;28;20197;-28
2023/12/20 05:35:43;;;;;;;0.50;0.50;;;5.20;99.90;;;;;;4976779;28;20302;-28
2023/12/20 05:38:09;;;;;;;0.60;0.60;;;5.20;99.90;;;;;;4992720;28;20194;-26
2023/12/20 05:40:35;;;;;;;0.63;0.63;;;5.20;99.90;;;;;;4992617;28;20216;-27
2023/12/20 05:43:00;;;;;;;0.50;0.50;;;5.20;99.90;;;;;;4995520;28;20248;-27
2023/12/20 05:45:26;;;;;;;0.63;0.60;;;5.20;99.90;;;;;;5006170;28;20213;-27
2023/12/20 05:47:52;;;;;;;1.00;0.90;;;5.20;99.90;;;;;;5032107;28;20216;-26
2023/12/20 05:50:18;;;;;;;0.70;0.70;;;5.20;99.90;;;;;;5018167;28;20175;-27
2023/12/20 05:52:44;;;;;;;0.70;0.70;;;5.20;99.90;;;;;;4999532;28;20327;-28
2023/12/20 05:55:10;;;;;;;0.60;0.60;;;5.20;99.90;;;;;;4996977;28;20216;-28
2023/12/20 05:57:35;;;;;;;0.80;0.60;;;5.20;99.90;;;;;;5013204;28;20177;-28
2023/12/20 06:00:01;;;;;;;0.53;0.53;;;5.20;99.90;;;;;;5002854;28;20174;-27
2023/12/20 06:02:27;;;;;;;0.73;0.70;;;5.30;99.90;;;;;;5008712;28;20247;-26
2023/12/20 06:04:53;;;;;;;0.80;0.70;;;5.30;99.90;;;;;;5014693;28;20187;-27
2023/12/20 06:07:19;;;;;;;1.10;1.00;;;5.30;99.90;;;;;;5031036;28;20225;-28
2023/12/20 06:09:45;;;;;;;0.80;0.80;;;5.30;99.90;;;;;;5030403;28;20190;-28
2023/12/20 06:12:11;;;;;;;1.70;1.60;;;5.30;99.90;;;;;;5023118;28;20200;-26
2023/12/20 06:14:36;;;;;;;1.40;1.23;;;5.30;99.90;;;;;;5030018;28;20189;-27
2023/12/20 06:17:02;;;;;;;1.37;0.90;;;5.20;99.90;;;;;;4998344;28;20190;-28
2023/12/20 06:19:28;;;;;;;0.70;0.70;;;5.30;99.90;;;;;;5011999;28;20183;-28
2023/12/20 06:21:54;;;;;;;0.40;0.40;;;5.30;99.90;;;;;;4991624;28;20245;-29
2023/12/20 06:24:21;;;;;;;1.17;0.83;;;5.30;99.90;;;;;;5024753;28;20167;-28
2023/12/20 06:26:47;;;;;;;1.00;0.90;;;5.30;99.90;;;;;;5018655;28;20186;-27
2023/12/20 06:29:13;;;;;;;1.00;0.90;;;5.30;99.90;;;;;;4995333;28;20186;-28
2023/12/20 06:31:40;;;;;;;0.60;0.60;;;5.30;99.90;;;;;;5031088;28;20221;-28
2023/12/20 06:34:09;;;;;;;0.70;0.70;;;5.30;99.90;;;;;;5016492;28;20186;-27
2023/12/20 06:36:35;;;;;;;1.77;0.77;;;5.20;99.90;;;;;;5015233;28;20186;-27
2023/12/20 06:39:01;;;;;;;1.27;0.80;;;5.20;99.90;;;;;;5016173;28;20480;-28
2023/12/20 06:41:26;;;;;;;1.17;1.00;;;5.20;99.90;;;;;;5004762;28;20267;-28
2023/12/20 06:43:53;;;;;;;1.27;1.17;;;5.20;99.90;;;;;;4999690;28;20243;-27
2023/12/20 06:46:19;;;;;;;1.47;1.10;;;5.20;99.90;;;;;;5031981;28;20272;-28
2023/12/20 06:48:44;;;;;;;3.40;2.50;;;5.20;99.90;;;;;;5016158;28;20265;-28
2023/12/20 06:51:16;;;;;;;2.87;2.20;;;5.30;99.90;;;;;;5015112;28;20196;-28
2023/12/20 06:53:42;;;;;;;3.43;2.60;;;5.30;99.90;;;;;;5015170;28;20178;-27
2023/12/20 06:56:10;;;;;;;4.30;3.27;;;5.30;99.90;;;;;;5014716;28;20181;-27
2023/12/20 06:58:37;;;;;;;5.47;3.50;;;5.30;99.90;;;;;;5031888;28;20185;-28
2023/12/20 07:01:04;;;;;;;3.00;2.70;;;5.20;99.90;;;;;;5001894;28;20228;-27
2023/12/20 07:03:30;;;;;;;3.70;3.00;;;5.20;99.90;;;;;;5010795;28;20229;-27
2023/12/20 07:05:55;;;;;;;1.87;1.53;;;5.20;99.90;;;;;;5014242;28;20835;-28
2023/12/20 07:08:21;;;;;;;1.63;1.30;;;5.20;99.90;;;;;;4997594;28;20218;-27
2023/12/20 07:10:47;;;;;;;1.43;1.30;;;5.10;99.90;;;;;;5015074;28;20205;-27
2023/12/20 07:13:13;;;;;;;6.93;3.50;;;5.10;99.90;;;;;;5040634;28;20208;-28
2023/12/20 07:15:39;;;;;;;8.67;4.67;;;5.00;99.90;;;;;;5011258;28;20182;-29
2023/12/20 07:18:06;;;;;;;3.33;2.63;;;5.00;99.90;;;;;;4997122;28;20182;-27
2023/12/20 07:20:32;;;;;;;1.80;1.50;;;5.10;99.90;;;;;;5032990;28;20256;-28
2023/12/20 07:22:58;;;;;;;3.10;1.87;;;5.10;99.90;;;;;;5014728;28;20203;-29
2023/12/20 07:25:23;;;;;;;2.53;1.53;;;5.10;99.90;;;;;;5008135;28;20182;-28
2023/12/20 07:27:49;;;;;;;2.33;1.20;;;5.10;99.90;;;;;;5014371;28;20672;-29
2023/12/20 07:30:15;;;;;;;0.87;0.87;;;5.20;99.90;;;;;;5026146;28;20183;-27
2023/12/20 07:32:41;;;;;;;1.23;0.80;;;5.20;99.90;;;;;;5017441;28;20193;-27
2023/12/20 07:35:07;;;;;;;1.37;1.27;;;5.20;99.90;;;;;;5030211;28;20196;-27
2023/12/20 07:37:32;;;;;;;2.30;2.10;;;5.30;99.90;;;;;;5030455;28;20194;-27
2023/12/20 07:39:58;;;;;;;2.80;2.50;;;5.30;99.90;;;;;;5029739;28;20196;-26
2023/12/20 07:42:24;;;;;;;1.40;1.30;;;5.30;99.90;;;;;;5030390;28;20222;-27
2023/12/20 07:44:50;;;;;;;2.20;1.30;;;5.30;99.90;;;;;;5030212;28;20180;-28
2023/12/20 07:47:19;;;;;;;0.97;0.77;;;5.30;99.90;;;;;;5029599;28;20271;-27
2023/12/20 07:49:44;;;;;;;1.10;1.00;;;5.30;99.90;;;;;;5020465;28;20208;-28
2023/12/20 07:52:10;;;;;;;2.13;1.93;;;5.30;99.90;;;;;;4997310;28;20205;-28
2023/12/20 07:54:36;;;;;;;1.30;1.20;;;5.30;99.90;;;;;;4997410;28;20235;-28
2023/12/20 07:57:02;;;;;;;2.77;1.80;;;5.30;99.90;;;;;;5013583;28;20194;-28
2023/12/20 07:59:28;;;;;;;2.07;1.40;;;5.30;99.90;;;;;;5013259;28;20190;-28
2023/12/20 08:01:53;;;;;;;1.83;1.60;;;5.30;99.90;;;;;;5006407;28;20239;-28
2023/12/20 08:04:19;;;;;;;1.70;1.60;;;5.30;99.90;;;;;;5012627;28;20271;-28
2023/12/20 08:06:45;;;;;;;3.00;1.90;;;5.30;99.90;;;;;;5012913;28;20662;-28
2023/12/20 08:09:11;;;;;;;2.27;1.37;;;5.30;99.90;;;;;;5013489;28;20186;-28
2023/12/20 08:11:37;;;;;;;1.27;1.13;;;5.30;99.90;;;;;;5013364;28;20252;-28
2023/12/20 08:14:02;;;;;;;3.60;2.00;;;5.30;99.90;;;;;;5013240;28;20189;-28
2023/12/20 08:16:28;;;;;;;2.27;1.97;;;5.30;99.90;;;;;;5012889;28;20265;-28
2023/12/20 08:18:54;;;;;;;2.50;2.30;;;5.40;99.90;;;;;;5012539;28;20193;-28
2023/12/20 08:21:22;;;;;;;1.07;1.07;;;5.40;99.90;;;;;;5013388;28;20292;-28
2023/12/20 08:23:48;;;;;;;1.20;1.10;;;5.40;99.90;;;;;;5029940;28;20285;-28
2023/12/20 08:26:13;;;;;;;1.97;1.53;;;5.40;99.90;;;;;;5012547;28;20252;-28
2023/12/20 08:28:39;;;;;;;2.20;2.00;;;5.50;99.90;;;;;;5013063;28;20319;-28
2023/12/20 08:31:05;;;;;;;4.43;2.70;;;5.50;99.90;;;;;;5011922;28;20213;-28
2023/12/20 08:33:31;;;;;;;3.63;2.67;;;5.50;99.90;;;;;;5012939;28;20188;-28
2023/12/20 08:35:57;;;;;;;4.23;2.00;;;5.50;99.90;;;;;;5029086;28;20181;-28
2023/12/20 08:38:23;;;;;;;2.13;1.90;;;5.60;99.90;;;;;;5027418;28;20187;-27
2023/12/20 08:40:48;;;;;;;3.07;2.20;;;5.60;99.90;;;;;;5028895;28;20213;-28
2023/12/20 08:43:14;;;;;;;4.67;2.30;;;5.60;99.90;;;;;;5029324;28;20215;-27
2023/12/20 08:45:41;;;;;;;2.73;2.53;;;5.60;99.90;;;;;;5012996;28;20219;-26
2023/12/20 08:48:07;;;;;;;2.23;2.03;;;5.60;99.90;;;;;;5029315;28;20190;-27
2023/12/20 08:50:33;;;;;;;1.00;0.90;;;5.60;99.90;;;;;;4999474;28;20269;-27
2023/12/20 08:52:59;;;;;;;2.17;1.93;;;5.60;99.90;;;;;;5012521;28;20190;-26
2023/12/20 08:55:26;;;;;;;4.60;3.00;;;5.70;99.90;;;;;;5012910;28;20189;-27
2023/12/20 08:57:52;;;;;;;6.50;4.50;;;5.70;99.90;;;;;;5012602;28;20188;-27
2023/12/20 09:00:20;;;;;;;6.17;3.20;;;5.70;99.90;;;;;;5028603;28;20189;-27
2023/12/20 09:02:46;;;;;;;1.77;1.43;;;5.70;99.90;;;;;;5007580;28;20277;-27
2023/12/20 09:05:12;;;;;;;2.10;1.20;;;5.70;99.90;;;;;;5012617;28;20189;-28
2023/12/20 09:07:38;;;;;;;1.50;1.13;;;5.70;99.90;;;;;;5012584;28;20177;-28
2023/12/20 09:10:04;;;;;;;1.10;1.00;;;5.70;99.90;;;;;;5012143;28;20208;-28
2023/12/20 09:12:29;;;;;;;1.73;1.30;;;5.70;99.90;;;;;;5012749;28;20213;-28
2023/12/20 09:14:55;;;;;;;1.40;1.17;;;5.70;99.90;;;;;;5012064;28;20194;-28
2023/12/20 09:17:22;;;;;;;3.00;1.43;;;5.60;99.90;;;;;;5011724;28;20224;-28
2023/12/20 09:19:48;;;;;;;1.60;1.37;;;5.60;99.90;;;;;;5028577;28;20186;-28
2023/12/20 09:22:14;;;;;;;2.40;1.77;;;5.50;99.90;;;;;;5012442;28;20218;-28
2023/12/20 09:24:40;;;;;;;4.17;1.60;;;5.40;99.90;;;;;;5012558;28;20181;-28
2023/12/20 09:27:06;;;;;;;3.00;1.40;;;5.40;99.90;;;;;;4979691;28;20201;-28
2023/12/20 09:29:32;;;;;;;4.70;1.63;;;5.40;99.90;;;;;;5012252;28;20181;-28
2023/12/20 09:31:58;;;;;;;2.87;1.20;;;5.40;99.90;;;;;;5011871;28;20225;-28
2023/12/20 09:34:25;;;;;;;2.37;1.33;;;5.40;99.90;;;;;;5029598;28;20227;-28
2023/12/20 09:36:51;;;;;;;2.70;1.20;;;5.40;99.90;;;;;;5028870;28;20214;-26
2023/12/20 09:39:19;;;;;;;2.23;1.53;;;5.40;99.90;;;;;;5012411;28;20201;-27
2023/12/20 09:41:46;;;;;;;3.77;1.50;;;5.40;99.90;;;;;;5028368;28;20217;-27
2023/12/20 09:44:18;;;;;;;2.83;1.40;;;5.50;99.90;;;;;;5028596;28;20185;-27
2023/12/20 09:46:45;;;;;;;1.30;1.10;;;5.60;99.90;;;;;;5028533;28;20181;-28
2023/12/20 09:49:13;;;;;;;2.97;1.50;;;5.60;99.90;;;;;;5028485;28;20240;-27
2023/12/20 09:51:40;;;;;;;5.40;1.73;;;5.70;99.90;;;;;;4999461;28;20274;-27
2023/12/20 09:54:06;;;;;;;3.43;1.97;;;5.70;99.90;;;;;;4992267;28;20236;-27
2023/12/20 09:56:33;;;;;;;4.63;1.70;;;5.70;99.90;;;;;;5010175;28;20186;-27
2023/12/20 09:58:59;;;;;;;3.87;1.67;;;5.80;99.90;;;;;;4992382;28;20194;-27
2023/12/20 10:01:27;;;;;;;3.20;2.30;;;5.70;99.90;;;;;;5009809;28;20229;-27
2023/12/20 10:03:54;;;;;;;4.57;2.23;;;5.70;99.90;;;;;;5023828;28;20236;-27
2023/12/20 10:06:21;;;;;;;7.87;2.60;;;5.80;99.90;;;;;;5028293;28;20209;-27
2023/12/20 10:08:47;;;;;;;4.77;2.00;;;5.90;99.90;;;;;;5027840;28;20183;-27
2023/12/20 10:11:13;;;;;;;3.87;1.97;;;6.00;99.90;;;;;;5028455;28;20205;-27
2023/12/20 10:13:44;;;;;;;1.80;1.60;;;6.20;99.90;;;;;;5028432;28;20186;-27
2023/12/20 10:16:09;;;;;;;3.70;1.30;;;6.40;99.90;;;;;;5028172;28;20236;-27
2023/12/20 10:18:36;;;;;;;4.30;1.37;;;6.50;99.90;;;;;;5028262;28;20198;-27
2023/12/20 10:21:03;;;;;;;2.67;1.60;;;6.50;99.90;;;;;;5028483;28;20209;-27
2023/12/20 10:23:30;;;;;;;4.73;1.83;;;6.50;99.90;;;;;;5011834;28;20675;-26
2023/12/20 10:26:00;;;;;;;3.37;1.73;;;6.50;99.90;;;;;;5011018;28;20183;-28
2023/12/20 10:28:29;;;;;;;2.87;1.60;;;6.50;99.90;;;;;;5030017;28;20175;-28
2023/12/20 10:30:58;;;;;;;4.97;1.90;;;6.50;99.90;;;;;;4998020;28;20213;-26
2023/12/20 10:33:25;;;;;;;6.90;1.90;;;6.40;99.90;;;;;;5033009;28;20186;-27
2023/12/20 10:35:52;;;;;;;3.50;1.63;;;6.40;99.90;;;;;;5015218;28;20190;-28
2023/12/20 10:38:18;;;;;;;4.27;1.50;;;6.40;99.90;;;;;;5015028;28;20251;-27
2023/12/20 10:40:46;;;;;;;2.17;1.33;;;6.40;99.90;;;;;;5006496;28;20202;-27
2023/12/20 10:43:12;;;;;;;1.93;1.20;;;6.40;99.90;;;;;;5015101;28;20210;-27
2023/12/20 10:45:38;;;;;;;6.30;1.53;;;6.40;99.90;;;;;;5015231;28;20182;-27
2023/12/20 10:48:04;;;;;;;2.13;1.47;;;6.60;99.90;;;;;;5015081;28;20235;-27
2023/12/20 10:50:31;;;;;;;3.60;1.43;;;6.60;99.90;;;;;;5024678;28;20188;-27
2023/12/20 10:52:58;;;;;;;4.00;1.40;;;6.70;99.90;;;;;;4995446;28;20203;-27
2023/12/20 10:55:25;;;;;;;2.80;1.60;;;6.80;99.90;;;;;;4994998;28;20219;-27
2023/12/20 10:57:51;;;;;;;3.53;1.57;;;6.90;99.90;;;;;;4994479;28;20212;-27
2023/12/20 11:00:23;;;;;;;3.40;1.30;;;7.00;99.90;;;;;;5012816;28;20187;-27
2023/12/20 11:02:51;;;;;;;1.73;1.10;;;7.00;99.90;;;;;;5026432;28;20209;-27
2023/12/20 11:05:44;;;;;;;2.70;1.37;;;7.00;99.90;;;;;;5018146;28;20178;-27
2023/12/20 11:08:22;;;;;;;5.47;2.17;;;7.00;99.90;;;;;;5017915;28;20185;-28
2023/12/20 11:10:54;;;;;;;4.93;2.00;;;6.90;99.90;;;;;;5051038;28;20204;-28
2023/12/20 11:13:30;;;;;;;2.40;1.43;;;6.90;99.90;;;;;;5016881;28;20189;-28
2023/12/20 11:15:56;;;;;;;6.17;2.60;;;6.90;99.90;;;;;;5034697;28;20194;-29
2023/12/20 11:18:29;;;;;;;3.47;1.93;;;7.00;99.90;;;;;;5051884;28;20316;-29
2023/12/20 11:20:55;;;;;;;2.73;1.93;;;7.10;99.90;;;;;;5013899;28;20195;-28
2023/12/20 11:23:22;;;;;;;4.40;2.10;;;7.10;99.90;;;;;;5010370;28;20210;-29
2023/12/20 11:25:58;;;;;;;3.33;2.70;;;7.10;99.90;;;;;;5022975;28;20221;-29
2023/12/20 11:28:25;;;;;;;2.83;1.80;;;7.20;99.90;;;;;;5014804;28;20182;-29
2023/12/20 11:30:54;;;;;;;4.37;2.30;;;7.20;99.90;;;;;;5031134;28;20213;-27
2023/12/20 11:33:25;;;;;;;3.73;1.87;;;7.30;99.90;;;;;;5010903;28;20199;-29
2023/12/20 11:35:52;;;;;;;3.33;1.93;;;7.40;99.90;;;;;;4993103;28;20202;-28
2023/12/20 11:38:24;;;;;;;2.40;1.60;;;7.50;99.90;;;;;;4978534;28;20183;-27
2023/12/20 11:40:56;;;;;;;3.70;2.43;;;7.50;99.90;;;;;;5011011;28;20218;-28
2023/12/20 11:43:36;;;;;;;3.00;1.70;;;7.50;99.90;;;;;;4994598;28;20238;-28
2023/12/20 11:46:09;;;;;;;2.40;1.33;;;7.40;99.90;;;;;;4994295;28;20190;-28
2023/12/20 11:48:38;;;;;;;3.90;1.70;;;7.40;99.90;;;;;;4994396;28;20179;-28
2023/12/20 11:51:11;;;;;;;3.27;1.60;;;7.30;99.90;;;;;;4993648;28;20269;-28
2023/12/20 11:53:40;;;;;;;3.10;1.57;;;7.10;99.90;;;;;;4994600;28;20185;-27
2023/12/20 11:56:12;;;;;;;2.87;1.40;;;7.00;99.90;;;;;;5005139;28;20186;-28
2023/12/20 11:58:39;;;;;;;4.20;1.57;;;7.00;99.90;;;;;;4993017;28;20190;-27
2023/12/20 12:01:07;;;;;;;5.67;1.60;;;6.90;99.90;;;;;;5013414;28;20209;-27
2023/12/20 12:03:34;;;;;;;2.90;1.40;;;6.80;99.90;;;;;;5011348;28;20320;-27
2023/12/20 12:06:00;;;;;;;4.63;2.03;;;6.80;99.90;;;;;;5012844;28;20182;-28
2023/12/20 12:08:27;;;;;;;2.53;1.30;;;6.60;99.90;;;;;;4997441;28;20189;-28
2023/12/20 12:10:55;;;;;;;5.90;1.47;;;6.50;99.90;;;;;;5012769;28;20195;-27
2023/12/20 12:13:27;;;;;;;4.50;1.70;;;6.40;99.90;;;;;;5013710;28;20198;-27
2023/12/20 12:15:55;;;;;;;5.50;1.83;;;6.30;99.90;;;;;;5031001;28;20185;-27
2023/12/20 12:18:21;;;;;;;5.33;1.60;;;6.20;99.90;;;;;;5032669;28;20185;-27
2023/12/20 12:20:47;;;;;;;3.87;1.30;;;6.10;99.90;;;;;;5014017;28;20366;-28
2023/12/20 12:23:13;;;;;;;4.43;1.30;;;6.10;99.90;;;;;;5017994;28;20249;-27
2023/12/20 12:25:39;;;;;;;5.07;1.60;;;6.10;99.90;;;;;;5020327;28;20189;-28
2023/12/20 12:28:05;;;;;;;4.90;1.90;;;6.00;99.90;;;;;;5019020;28;20181;-29
2023/12/20 12:30:31;;;;;;;4.07;1.47;;;6.00;99.90;;;;;;5016371;28;20211;-29
2023/12/20 12:32:57;;;;;;;6.27;2.27;;;6.00;99.90;;;;;;5019645;28;20174;-29
2023/12/20 12:35:24;;;;;;;9.13;2.70;;;6.00;99.90;;;;;;5002345;28;20183;-28
2023/12/20 12:37:51;;;;;;;10.10;2.10;;;6.00;99.90;;;;;;4985282;28;20190;-29
2023/12/20 12:40:17;;;;;;;4.57;2.00;;;6.00;99.90;;;;;;4996980;28;20182;-28
2023/12/20 12:42:44;;;;;;;5.27;1.50;;;6.00;99.90;;;;;;5016171;28;20211;-28
2023/12/20 12:45:14;;;;;;;5.10;1.73;;;5.90;99.90;;;;;;5028073;28;20200;-29
2023/12/20 12:47:40;;;;;;;6.13;1.80;;;5.90;99.90;;;;;;5029866;28;20217;-29
2023/12/20 12:50:07;;;;;;;3.93;1.40;;;6.00;99.90;;;;;;5026733;28;20180;-29
2023/12/20 12:52:35;;;;;;;4.40;1.30;;;5.90;99.90;;;;;;5028851;28;20210;-28
2023/12/20 12:55:01;;;;;;;5.83;1.40;;;6.00;99.90;;;;;;5013602;28;20185;-29